ADDS TAF Data INFO
IDs: Format: Raw Decoded Include METARs

Data at: 0629 UTC 19 Jan 2017

Region: TOP
KATL 190533Z 1906/2012 32004KT P6SM BKN200
  FM191100 04005KT P6SM SCT015 BKN100
  FM191600 14007KT P6SM BKN025 BKN060
  FM192000 14008KT P6SM SCT030 BKN100
  FM200000 15009KT P6SM -SHRA OVC015
  PROB30 2003/2006 3SM TSRA BKN015CB
  FM201100 22007KT 5SM BR BKN015


KBOS 190543Z 1906/2012 03004KT 3SM BR OVC008
  TEMPO 1907/1908 2SM -SN
  FM191100 27004KT 6SM BR OVC015
  FM191300 27005KT P6SM OVC025
  FM191500 28005KT P6SM BKN040
  FM192100 32005KT P6SM SCT150


KBWI 190525Z 1906/2012 31005KT P6SM OVC035
  FM191300 31006KT P6SM SCT035
  FM200000 VRB03KT P6SM FEW200
  FM200900 00000KT P6SM BKN080


KCLE 190536Z 1906/2012 22008KT P6SM -DZ OVC007
  TEMPO 1908/1912 4SM -DZ BR OVC004
  FM191500 22006KT P6SM OVC007
  FM191700 22006KT P6SM OVC012
  FM191900 20006KT P6SM OVC250
  FM200500 11006KT P6SM OVC080
  FM201000 11006KT P6SM -SHRA OVC035


KCLT 190526Z 1906/2006 03003KT P6SM SCT250
  FM191900 10003KT P6SM SCT090
  FM192100 18003KT P6SM BKN080
  PROB30 2004/2006 4SM -SHRA OVC040


KCVG 190538Z 1906/2012 23004KT P6SM OVC007
  TEMPO 1906/1908 BKN018
  FM190800 16004KT P6SM OVC250
  FM191600 12007KT P6SM OVC120
  FM192300 12009KT P6SM VCSH OVC040
  FM200100 11010KT 5SM -RA BR OVC020
  FM200600 15006KT 3SM -RA BR OVC008


KDCA 190525Z 1906/2006 32005KT P6SM BKN035
  FM191100 32005KT P6SM SCT035
  FM192200 19004KT P6SM FEW030
  FM200000 VRB03KT P6SM FEW150


KDEN 190520Z 1906/2012 21009KT P6SM FEW250
  FM191500 21008KT P6SM SCT220
  FM192000 12008KT P6SM SCT120 SCT200
  FM200100 22007KT P6SM SCT120 BKN200
  FM200600 22008KT P6SM SCT080 BKN120
  FM200900 24008KT P6SM VCSH SCT050 BKN070


KDFW 190520Z 1906/2012 22003KT P6SM SCT010 BKN025
  FM190800 21003KT 5SM BR OVC008
  FM191100 23004KT 3SM BR OVC004
  FM191600 19010KT P6SM BKN250
  FM191900 20016KT P6SM SCT250


KDTW 190527Z 1906/2012 23008KT 5SM BR OVC006
  FM190900 21005KT 4SM BR OVC004
  FM191400 20006KT P6SM BKN006 OVC015
  FM191900 17005KT P6SM SCT015
  FM192200 10005KT P6SM BKN200
  FM200200 06003KT P6SM FEW015 BKN150
  TEMPO 2008/2012 5SM BR BKN015


KEWR 190531Z 1906/2012 34004KT P6SM SCT030 BKN060
  FM191000 VRB03KT P6SM SCT025 BKN050
  FM191400 30007KT P6SM SCT020
  FM200200 35005KT P6SM SCT020
  FM200700 02004KT P6SM FEW020


KFLL 190520Z 1906/2006 22003KT P6SM SCT250
  FM191500 16007KT P6SM SKC
  FM200000 00000KT P6SM SKC


KIAD 190525Z 1906/2012 31004KT P6SM BKN030
  FM191100 31004KT P6SM SCT035
  FM192200 24004KT P6SM FEW030
  FM200000 VRB03KT P6SM FEW250
  FM200900 00000KT P6SM BKN060


KIAH 190527Z 1906/2012 33004KT 6SM BR VCSH OVC005
  TEMPO 1908/1912 3SM SHRA BR OVC004
  FM191500 31004KT 4SM BR VCSH OVC007
  FM191900 26005KT P6SM BKN007 BKN015
  FM192200 22005KT P6SM BKN025
  FM200300 VRB04KT 6SM BR BKN010
  FM200800 VRB04KT 2SM BR OVC007


KJFK 190531Z 1906/2012 34006KT P6SM SCT020 OVC040
  TEMPO 1906/1908 BKN020
  FM191000 30007KT P6SM SCT025 BKN040
  FM191600 31008KT P6SM SCT020
  FM200200 34007KT P6SM SCT020
  FM200700 03004KT P6SM FEW020


KLAS 190539Z 1906/2006 25008KT P6SM -SHRA BKN050 OVC080
  FM191100 21008KT P6SM VCSH BKN050 OVC080
  FM191800 19010KT P6SM VCSH BKN050 BKN080


KLAX 190552Z 1906/2012 13009KT P6SM -SHRA SCT025 BKN050
  FM191200 13015G22KT 3SM RA BR VCTS BKN015CB OVC025
  FM191630 25015G20KT P6SM -SHRA BKN025 BKN050
  FM192000 26018G25KT P6SM VCSH SCT025 BKN050
  FM200400 27015KT P6SM SCT025 BKN050


KLGA 190531Z 1906/2006 34004KT P6SM SCT020 OVC040
  TEMPO 1906/1908 BKN020
  FM191000 31006KT P6SM SCT025 BKN040
  FM191600 31007KT P6SM SCT020
  FM200200 36007KT P6SM SCT020


KMCO 190520Z 1906/2006 26003KT P6SM BKN250
  FM190900 30003KT 4SM BR FEW010 SCT250
  FM191400 VRB03KT P6SM FEW035 SCT250


KMDW 190532Z 1906/2006 21006KT 4SM BR FEW009
  FM190900 21006KT 2SM BR FEW006 BKN250
  FM191500 16008KT 6SM BR SCT015 BKN100
  FM192000 10010KT P6SM OVC035
  FM200100 10007KT 3SM -RA SCT010 OVC025
  FM200400 09007KT 2SM -RA BKN007 OVC015


KMEM 190526Z 1906/2006 07007KT P6SM VCSH SCT009 OVC012
  TEMPO 1908/1912 BKN009
  FM191200 13007KT 5SM -SHRA BR BKN007 OVC012
  TEMPO 1914/1918 4SM SHRA BR BKN004
  FM191900 17007KT P6SM -SHRA SCT012 OVC035
  FM200000 22007KT P6SM SCT040 BKN120


KMIA 190520Z 1906/2006 26003KT P6SM SCT250
  FM191500 15006KT P6SM SKC
  FM200000 00000KT P6SM SKC


KMSP 190520Z 1906/2012 15006KT 6SM BR FEW250
  FM191000 16004KT 4SM BR FEW005 SCT250
  FM191700 15006KT 5SM BR OVC010
  FM200600 11003KT 2SM BR OVC005


KORD 190532Z 1906/2012 21005KT 4SM BR FEW009
  FM190900 21004KT 2SM BR FEW006 BKN250
  FM191500 16008KT 6SM BR SCT015 BKN100
  FM192000 10010KT P6SM OVC035
  FM200100 10007KT 3SM -RA SCT010 OVC025
  FM200400 09007KT 2SM -RA BKN007 OVC015


KPDX 190544Z 1906/2006 15008KT P6SM -SHRA SCT025 BKN040
  FM191800 16013KT 4SM -RA BR OVC025
  FM192200 16011KT 4SM -RA BR OVC050


KPHL 190556Z 1906/2012 33003KT P6SM BKN025 OVC050
  FM190900 32005KT P6SM BKN035
  FM191300 31007KT P6SM FEW045 SCT250
  FM191900 29009KT P6SM SCT035
  FM200000 34005KT P6SM SCT250
  FM200500 03004KT P6SM BKN200


KPHX 190530Z 1906/2006 11006KT P6SM SCT150 OVC250
  FM191200 10007KT P6SM VCSH BKN080 OVC200
  FM192000 12006KT P6SM BKN060 OVC100
  FM200100 12008KT 5SM -SHRA BR BKN050 OVC080


KPIT 190525Z 1906/2012 25006KT P6SM -DZ OVC008
  FM191500 22003KT P6SM BKN025
  FM192200 16003KT P6SM BKN080
  FM200700 09005KT P6SM BKN250


KSAN 190520Z 1906/2012 17007KT P6SM VCSH FEW015 SCT025 BKN100
  TEMPO 1909/1913 -SHRA BKN025
  FM191300 18012G20KT 4SM RA BR SCT007 OVC015
  FM192100 26014KT P6SM -SHRA SCT015 BKN025
  FM200200 27007KT P6SM VCSH BKN025


KSEA 190616Z 1906/2012 18018G30KT P6SM -RA OVC040
  FM190900 17012KT P6SM -SHRA BKN025 OVC040
  FM191400 18010KT P6SM VCSH BKN030 OVC045
  FM191900 18008KT P6SM -SHRA BKN025 OVC045
  FM200200 17008KT P6SM VCSH SCT030 OVC045


KSFO 190539Z 1906/2012 15005KT P6SM VCSH FEW005 SCT023 BKN040
  FM191600 23010KT P6SM -SHRA OVC040
  FM192200 25012KT P6SM BKN040 OVC080
  FM200300 18007KT P6SM BKN050 OVC100
  PROB30 2006/2010 P6SM -RA OVC025
  FM201000 15020KT P6SM -RA OVC025


KSLC 190538Z 1906/2012 34005KT 4SM BR BKN100 BKN150
  FM191100 33004KT 5SM -RASN BR SCT007 BKN015
  FM191900 32006KT 2SM -SN BR SCT007 BKN015
  FM200200 32004KT P6SM -SHSN SCT007 BKN015


KSTL 190540Z 1906/2012 13006KT P6SM VCSH OVC060
  TEMPO 1906/1909 5SM -SHRA BR
  FM190900 13005KT 5SM BR VCSH OVC030
  FM191500 11005KT 2SM -SHRA BR OVC010
  FM191800 10005KT 3SM -SHRA BR OVC008
  FM200100 VRB04KT 3SM BR OVC008


KTPA 190534Z 1906/2006 VRB04KT P6SM FEW050 SCT250
  FM190900 00000KT 4SM BR SCT250
  FM191400 16005KT P6SM SCT030 SCT250
  FM191800 23007KT P6SM SCT040 SCT250



Page loaded:  06:29 UTC  |   10:29 PM Pacific  |   11:29 PM Mountain  |   12:29 AM Central  |   01:29 AM Eastern

 

ADVISORIES

FORECASTS

FORECASTS

OBSERVATIONS

USER TOOLS

ABOUT US